sensor_id;sensor_type;location;lat;lon;timestamp;temperature;humidity
6738;DHT22;3406;49.902;8.596;2023-02-04T00:01:15;9.60;83.30
6738;DHT22;3406;49.902;8.596;2023-02-04T00:03:43;9.70;83.30
6738;DHT22;3406;49.902;8.596;2023-02-04T00:06:09;9.60;83.00
6738;DHT22;3406;49.902;8.596;2023-02-04T00:08:36;9.60;82.70
6738;DHT22;3406;49.902;8.596;2023-02-04T00:11:03;9.60;82.50
6738;DHT22;3406;49.902;8.596;2023-02-04T00:13:30;9.50;82.90
6738;DHT22;3406;49.902;8.596;2023-02-04T00:15:56;9.50;82.60
6738;DHT22;3406;49.902;8.596;2023-02-04T00:18:23;9.50;82.40
6738;DHT22;3406;49.902;8.596;2023-02-04T00:20:51;9.50;82.30
6738;DHT22;3406;49.902;8.596;2023-02-04T00:23:18;9.50;82.00
6738;DHT22;3406;49.902;8.596;2023-02-04T00:25:44;9.50;81.50
6738;DHT22;3406;49.902;8.596;2023-02-04T00:28:11;9.40;81.10
6738;DHT22;3406;49.902;8.596;2023-02-04T00:30:38;9.40;80.50
6738;DHT22;3406;49.902;8.596;2023-02-04T00:33:04;9.40;80.30
6738;DHT22;3406;49.902;8.596;2023-02-04T00:35:31;9.40;80.00
6738;DHT22;3406;49.902;8.596;2023-02-04T00:37:59;9.50;79.80
6738;DHT22;3406;49.902;8.596;2023-02-04T00:40:26;9.40;79.70
6738;DHT22;3406;49.902;8.596;2023-02-04T00:42:52;9.40;79.70
6738;DHT22;3406;49.902;8.596;2023-02-04T00:45:19;9.40;79.70
6738;DHT22;3406;49.902;8.596;2023-02-04T00:47:46;9.40;79.80
6738;DHT22;3406;49.902;8.596;2023-02-04T00:50:12;9.40;79.60
6738;DHT22;3406;49.902;8.596;2023-02-04T00:52:39;9.40;79.60
6738;DHT22;3406;49.902;8.596;2023-02-04T00:55:07;9.40;79.50
6738;DHT22;3406;49.902;8.596;2023-02-04T00:57:35;9.40;79.50
6738;DHT22;3406;49.902;8.596;2023-02-04T01:00:01;9.40;79.30
6738;DHT22;3406;49.902;8.596;2023-02-04T01:02:28;9.40;79.30
6738;DHT22;3406;49.902;8.596;2023-02-04T01:04:55;9.40;79.10
6738;DHT22;3406;49.902;8.596;2023-02-04T01:07:21;9.40;79.30
6738;DHT22;3406;49.902;8.596;2023-02-04T01:09:48;9.40;79.30
6738;DHT22;3406;49.902;8.596;2023-02-04T01:12:16;9.30;79.10
6738;DHT22;3406;49.902;8.596;2023-02-04T01:14:43;9.30;79.00
6738;DHT22;3406;49.902;8.596;2023-02-04T01:17:09;9.30;79.20
6738;DHT22;3406;49.902;8.596;2023-02-04T01:19:36;9.30;79.30
6738;DHT22;3406;49.902;8.596;2023-02-04T01:22:03;9.30;79.50
6738;DHT22;3406;49.902;8.596;2023-02-04T01:24:29;9.30;79.60
6738;DHT22;3406;49.902;8.596;2023-02-04T01:26:56;9.20;79.50
6738;DHT22;3406;49.902;8.596;2023-02-04T01:29:24;9.20;79.60
6738;DHT22;3406;49.902;8.596;2023-02-04T01:31:51;9.20;79.70
6738;DHT22;3406;49.902;8.596;2023-02-04T01:34:17;9.20;79.80
6738;DHT22;3406;49.902;8.596;2023-02-04T01:36:44;9.20;80.60
6738;DHT22;3406;49.902;8.596;2023-02-04T01:39:11;9.20;79.80
6738;DHT22;3406;49.902;8.596;2023-02-04T01:41:38;9.20;79.70
6738;DHT22;3406;49.902;8.596;2023-02-04T01:44:05;9.20;79.60
6738;DHT22;3406;49.902;8.596;2023-02-04T01:46:33;9.20;79.50
6738;DHT22;3406;49.902;8.596;2023-02-04T01:49:03;9.20;79.30
6738;DHT22;3406;49.902;8.596;2023-02-04T01:51:30;9.20;79.10
6738;DHT22;3406;49.902;8.596;2023-02-04T01:53:57;9.20;79.10
6738;DHT22;3406;49.902;8.596;2023-02-04T01:56:26;9.20;79.00
6738;DHT22;3406;49.902;8.596;2023-02-04T01:58:56;9.20;79.00
6738;DHT22;3406;49.902;8.596;2023-02-04T02:01:36;9.20;78.90
6738;DHT22;3406;49.902;8.596;2023-02-04T02:04:03;9.10;79.00
6738;DHT22;3406;49.902;8.596;2023-02-04T02:06:31;9.10;79.00
6738;DHT22;3406;49.902;8.596;2023-02-04T02:08:58;9.00;79.20
6738;DHT22;3406;49.902;8.596;2023-02-04T02:11:25;9.00;79.30
6738;DHT22;3406;49.902;8.596;2023-02-04T02:13:52;9.00;79.40
6738;DHT22;3406;49.902;8.596;2023-02-04T02:16:19;9.00;79.40
6738;DHT22;3406;49.902;8.596;2023-02-04T02:18:47;9.00;78.70
6738;DHT22;3406;49.902;8.596;2023-02-04T02:21:15;9.00;78.40
6738;DHT22;3406;49.902;8.596;2023-02-04T02:23:48;9.00;78.10
6738;DHT22;3406;49.902;8.596;2023-02-04T02:26:16;9.00;78.00
6738;DHT22;3406;49.902;8.596;2023-02-04T02:28:44;9.00;78.00
6738;DHT22;3406;49.902;8.596;2023-02-04T02:31:12;9.00;78.00
6738;DHT22;3406;49.902;8.596;2023-02-04T02:33:39;9.00;78.00
6738;DHT22;3406;49.902;8.596;2023-02-04T02:36:06;9.00;78.10
6738;DHT22;3406;49.902;8.596;2023-02-04T02:38:33;9.00;78.20
6738;DHT22;3406;49.902;8.596;2023-02-04T02:41:02;9.00;78.20
6738;DHT22;3406;49.902;8.596;2023-02-04T02:43:30;8.90;78.10
6738;DHT22;3406;49.902;8.596;2023-02-04T02:45:58;8.90;78.20
6738;DHT22;3406;49.902;8.596;2023-02-04T02:48:26;8.90;78.30
6738;DHT22;3406;49.902;8.596;2023-02-04T02:50:52;9.00;78.40
6738;DHT22;3406;49.902;8.596;2023-02-04T02:53:20;9.00;78.40
6738;DHT22;3406;49.902;8.596;2023-02-04T02:55:47;9.00;78.40
6738;DHT22;3406;49.902;8.596;2023-02-04T02:58:18;9.00;78.40
6738;DHT22;3406;49.902;8.596;2023-02-04T03:00:45;9.00;78.40
6738;DHT22;3406;49.902;8.596;2023-02-04T03:03:15;9.00;78.30
6738;DHT22;3406;49.902;8.596;2023-02-04T03:05:45;8.90;78.30
6738;DHT22;3406;49.902;8.596;2023-02-04T03:08:14;8.90;78.30
6738;DHT22;3406;49.902;8.596;2023-02-04T03:10:41;8.90;78.30
6738;DHT22;3406;49.902;8.596;2023-02-04T03:13:09;8.90;78.30
6738;DHT22;3406;49.902;8.596;2023-02-04T03:15:38;8.90;78.30
6738;DHT22;3406;49.902;8.596;2023-02-04T03:18:05;8.90;78.20
6738;DHT22;3406;49.902;8.596;2023-02-04T03:20:32;8.90;78.10
6738;DHT22;3406;49.902;8.596;2023-02-04T03:22:59;8.80;77.90
6738;DHT22;3406;49.902;8.596;2023-02-04T03:25:26;8.80;77.40
6738;DHT22;3406;49.902;8.596;2023-02-04T03:27:54;8.70;77.00
6738;DHT22;3406;49.902;8.596;2023-02-04T03:30:22;8.70;76.60
6738;DHT22;3406;49.902;8.596;2023-02-04T03:32:50;8.70;76.50
6738;DHT22;3406;49.902;8.596;2023-02-04T03:35:18;8.60;76.40
6738;DHT22;3406;49.902;8.596;2023-02-04T03:37:44;8.60;77.20
6738;DHT22;3406;49.902;8.596;2023-02-04T03:40:12;8.60;76.40
6738;DHT22;3406;49.902;8.596;2023-02-04T03:42:38;8.50;76.40
6738;DHT22;3406;49.902;8.596;2023-02-04T03:45:06;8.50;76.40
6738;DHT22;3406;49.902;8.596;2023-02-04T03:47:32;8.50;76.60
6738;DHT22;3406;49.902;8.596;2023-02-04T03:50:00;8.40;76.50
6738;DHT22;3406;49.902;8.596;2023-02-04T03:52:27;8.50;76.60
6738;DHT22;3406;49.902;8.596;2023-02-04T03:54:54;8.40;76.70
6738;DHT22;3406;49.902;8.596;2023-02-04T03:57:20;8.40;76.80
6738;DHT22;3406;49.902;8.596;2023-02-04T03:59:47;8.40;76.80
6738;DHT22;3406;49.902;8.596;2023-02-04T04:02:14;8.40;76.90
6738;DHT22;3406;49.902;8.596;2023-02-04T04:04:40;8.40;77.00
6738;DHT22;3406;49.902;8.596;2023-02-04T04:07:08;8.40;77.00
6738;DHT22;3406;49.902;8.596;2023-02-04T04:09:35;8.40;77.70
6738;DHT22;3406;49.902;8.596;2023-02-04T04:12:02;8.40;77.00
6738;DHT22;3406;49.902;8.596;2023-02-04T04:14:29;8.40;77.00
6738;DHT22;3406;49.902;8.596;2023-02-04T04:16:55;8.40;77.00
6738;DHT22;3406;49.902;8.596;2023-02-04T04:19:22;8.40;77.10
6738;DHT22;3406;49.902;8.596;2023-02-04T04:21:49;8.50;77.20
6738;DHT22;3406;49.902;8.596;2023-02-04T04:24:17;8.40;77.10
6738;DHT22;3406;49.902;8.596;2023-02-04T04:26:44;8.40;77.00
6738;DHT22;3406;49.902;8.596;2023-02-04T04:29:11;8.40;77.10
6738;DHT22;3406;49.902;8.596;2023-02-04T04:31:37;8.40;77.00
6738;DHT22;3406;49.902;8.596;2023-02-04T04:34:04;8.40;77.10
6738;DHT22;3406;49.902;8.596;2023-02-04T04:36:30;8.40;77.20
6738;DHT22;3406;49.902;8.596;2023-02-04T04:38:57;8.40;77.20
6738;DHT22;3406;49.902;8.596;2023-02-04T04:41:25;8.30;77.50
6738;DHT22;3406;49.902;8.596;2023-02-04T04:43:52;8.30;77.20
6738;DHT22;3406;49.902;8.596;2023-02-04T04:46:19;8.30;77.30
6738;DHT22;3406;49.902;8.596;2023-02-04T04:48:45;8.30;77.30
6738;DHT22;3406;49.902;8.596;2023-02-04T04:51:12;8.20;77.20
6738;DHT22;3406;49.902;8.596;2023-02-04T04:53:38;8.30;77.40
6738;DHT22;3406;49.902;8.596;2023-02-04T04:56:05;8.30;77.40
6738;DHT22;3406;49.902;8.596;2023-02-04T04:58:33;8.30;77.50
6738;DHT22;3406;49.902;8.596;2023-02-04T05:01:00;8.30;77.50
6738;DHT22;3406;49.902;8.596;2023-02-04T05:03:27;8.30;77.50
6738;DHT22;3406;49.902;8.596;2023-02-04T05:05:53;8.20;77.40
6738;DHT22;3406;49.902;8.596;2023-02-04T05:08:20;8.20;77.40
6738;DHT22;3406;49.902;8.596;2023-02-04T05:10:47;8.20;77.50
6738;DHT22;3406;49.902;8.596;2023-02-04T05:13:14;8.20;77.60
6738;DHT22;3406;49.902;8.596;2023-02-04T05:15:42;8.20;77.60
6738;DHT22;3406;49.902;8.596;2023-02-04T05:18:09;8.30;77.60
6738;DHT22;3406;49.902;8.596;2023-02-04T05:20:35;8.30;77.60
6738;DHT22;3406;49.902;8.596;2023-02-04T05:23:02;8.20;77.60
6738;DHT22;3406;49.902;8.596;2023-02-04T05:25:28;8.20;77.60
6738;DHT22;3406;49.902;8.596;2023-02-04T05:27:55;8.20;77.70
6738;DHT22;3406;49.902;8.596;2023-02-04T05:30:22;8.20;77.80
6738;DHT22;3406;49.902;8.596;2023-02-04T05:32:50;8.10;77.80
6738;DHT22;3406;49.902;8.596;2023-02-04T05:35:17;8.10;77.90
6738;DHT22;3406;49.902;8.596;2023-02-04T05:37:43;8.10;78.00
6738;DHT22;3406;49.902;8.596;2023-02-04T05:40:11;8.00;78.00
6738;DHT22;3406;49.902;8.596;2023-02-04T05:42:37;8.00;78.10
6738;DHT22;3406;49.902;8.596;2023-02-04T05:45:05;8.00;78.20
6738;DHT22;3406;49.902;8.596;2023-02-04T05:47:32;8.00;78.20
6738;DHT22;3406;49.902;8.596;2023-02-04T05:49:59;8.00;78.30
6738;DHT22;3406;49.902;8.596;2023-02-04T05:52:26;7.90;78.40
6738;DHT22;3406;49.902;8.596;2023-02-04T05:54:53;7.90;78.50
6738;DHT22;3406;49.902;8.596;2023-02-04T05:57:19;8.00;78.60
6738;DHT22;3406;49.902;8.596;2023-02-04T05:59:46;7.90;78.50
6738;DHT22;3406;49.902;8.596;2023-02-04T06:02:13;7.90;78.60
6738;DHT22;3406;49.902;8.596;2023-02-04T06:04:39;7.90;78.70
6738;DHT22;3406;49.902;8.596;2023-02-04T06:07:07;7.90;78.70
6738;DHT22;3406;49.902;8.596;2023-02-04T06:09:34;7.90;78.80
6738;DHT22;3406;49.902;8.596;2023-02-04T06:12:01;7.90;78.90
6738;DHT22;3406;49.902;8.596;2023-02-04T06:14:27;7.90;79.00
6738;DHT22;3406;49.902;8.596;2023-02-04T06:16:54;7.90;79.00
6738;DHT22;3406;49.902;8.596;2023-02-04T06:19:20;7.90;79.00
6738;DHT22;3406;49.902;8.596;2023-02-04T06:21:47;7.90;79.00
6738;DHT22;3406;49.902;8.596;2023-02-04T06:24:15;7.90;79.00
6738;DHT22;3406;49.902;8.596;2023-02-04T06:26:42;7.80;79.00
6738;DHT22;3406;49.902;8.596;2023-02-04T06:29:08;7.80;79.10
6738;DHT22;3406;49.902;8.596;2023-02-04T06:31:35;7.80;79.30
6738;DHT22;3406;49.902;8.596;2023-02-04T06:34:03;7.80;79.40
6738;DHT22;3406;49.902;8.596;2023-02-04T06:36:30;7.80;79.50
6738;DHT22;3406;49.902;8.596;2023-02-04T06:38:56;7.80;79.50
6738;DHT22;3406;49.902;8.596;2023-02-04T06:41:24;7.90;79.60
6738;DHT22;3406;49.902;8.596;2023-02-04T06:43:51;7.90;79.50
6738;DHT22;3406;49.902;8.596;2023-02-04T06:46:18;8.00;79.60
6738;DHT22;3406;49.902;8.596;2023-02-04T06:48:44;8.00;79.60
6738;DHT22;3406;49.902;8.596;2023-02-04T06:51:11;8.00;79.60
6738;DHT22;3406;49.902;8.596;2023-02-04T06:53:38;8.00;79.60
6738;DHT22;3406;49.902;8.596;2023-02-04T06:56:05;8.00;79.50
6738;DHT22;3406;49.902;8.596;2023-02-04T06:58:33;8.00;79.60
6738;DHT22;3406;49.902;8.596;2023-02-04T07:01:00;8.00;79.70
6738;DHT22;3406;49.902;8.596;2023-02-04T07:03:26;8.00;79.80
6738;DHT22;3406;49.902;8.596;2023-02-04T07:05:53;8.10;79.90
6738;DHT22;3406;49.902;8.596;2023-02-04T07:08:20;8.10;79.80
6738;DHT22;3406;49.902;8.596;2023-02-04T07:10:47;8.00;79.70
6738;DHT22;3406;49.902;8.596;2023-02-04T07:13:13;8.00;79.80
6738;DHT22;3406;49.902;8.596;2023-02-04T07:15:41;8.00;79.90
6738;DHT22;3406;49.902;8.596;2023-02-04T07:18:08;8.00;79.90
6738;DHT22;3406;49.902;8.596;2023-02-04T07:20:35;8.00;80.00
6738;DHT22;3406;49.902;8.596;2023-02-04T07:23:01;8.00;80.10
6738;DHT22;3406;49.902;8.596;2023-02-04T07:25:28;8.00;80.10
6738;DHT22;3406;49.902;8.596;2023-02-04T07:27:54;8.00;80.10
6738;DHT22;3406;49.902;8.596;2023-02-04T07:30:23;7.90;80.20
6738;DHT22;3406;49.902;8.596;2023-02-04T07:32:51;7.90;80.30
6738;DHT22;3406;49.902;8.596;2023-02-04T07:35:18;7.90;80.60
6738;DHT22;3406;49.902;8.596;2023-02-04T07:37:44;7.90;80.60
6738;DHT22;3406;49.902;8.596;2023-02-04T07:40:11;7.90;80.60
6738;DHT22;3406;49.902;8.596;2023-02-04T07:42:38;7.80;80.60
6738;DHT22;3406;49.902;8.596;2023-02-04T07:45:05;7.80;80.90
6738;DHT22;3406;49.902;8.596;2023-02-04T07:47:32;7.80;81.30
6738;DHT22;3406;49.902;8.596;2023-02-04T07:50:00;7.80;81.40
6738;DHT22;3406;49.902;8.596;2023-02-04T07:52:27;7.80;81.50
6738;DHT22;3406;49.902;8.596;2023-02-04T07:54:54;7.90;81.50
6738;DHT22;3406;49.902;8.596;2023-02-04T07:57:20;8.00;81.60
6738;DHT22;3406;49.902;8.596;2023-02-04T07:59:47;8.00;81.50
6738;DHT22;3406;49.902;8.596;2023-02-04T08:02:14;8.10;81.50
6738;DHT22;3406;49.902;8.596;2023-02-04T08:04:40;8.20;81.60
6738;DHT22;3406;49.902;8.596;2023-02-04T08:07:08;8.20;81.50
6738;DHT22;3406;49.902;8.596;2023-02-04T08:09:35;8.30;81.50
6738;DHT22;3406;49.902;8.596;2023-02-04T08:12:01;8.30;81.30
6738;DHT22;3406;49.902;8.596;2023-02-04T08:14:28;8.30;81.30
6738;DHT22;3406;49.902;8.596;2023-02-04T08:16:55;8.30;81.40
6738;DHT22;3406;49.902;8.596;2023-02-04T08:19:22;8.40;81.60
6738;DHT22;3406;49.902;8.596;2023-02-04T08:21:48;8.40;81.70
6738;DHT22;3406;49.902;8.596;2023-02-04T08:24:16;8.50;81.60
6738;DHT22;3406;49.902;8.596;2023-02-04T08:26:43;8.50;81.60
6738;DHT22;3406;49.902;8.596;2023-02-04T08:29:10;8.40;81.50
6738;DHT22;3406;49.902;8.596;2023-02-04T08:31:37;8.40;81.70
6738;DHT22;3406;49.902;8.596;2023-02-04T08:34:04;8.50;81.90
6738;DHT22;3406;49.902;8.596;2023-02-04T08:36:31;8.60;81.80
6738;DHT22;3406;49.902;8.596;2023-02-04T08:38:58;8.60;81.90
6738;DHT22;3406;49.902;8.596;2023-02-04T08:41:26;8.70;81.80
6738;DHT22;3406;49.902;8.596;2023-02-04T08:43:52;8.70;81.80
6738;DHT22;3406;49.902;8.596;2023-02-04T08:46:19;8.80;81.80
6738;DHT22;3406;49.902;8.596;2023-02-04T08:48:46;8.80;81.60
6738;DHT22;3406;49.902;8.596;2023-02-04T08:51:13;8.90;81.80
6738;DHT22;3406;49.902;8.596;2023-02-04T08:53:39;8.90;81.70
6738;DHT22;3406;49.902;8.596;2023-02-04T08:56:06;8.90;81.40
6738;DHT22;3406;49.902;8.596;2023-02-04T08:58:34;8.90;81.30
6738;DHT22;3406;49.902;8.596;2023-02-04T09:01:01;8.90;81.10
6738;DHT22;3406;49.902;8.596;2023-02-04T09:03:28;9.00;81.20
6738;DHT22;3406;49.902;8.596;2023-02-04T09:05:54;9.10;81.10
6738;DHT22;3406;49.902;8.596;2023-02-04T09:08:21;9.20;81.00
6738;DHT22;3406;49.902;8.596;2023-02-04T09:10:48;9.20;80.70
6738;DHT22;3406;49.902;8.596;2023-02-04T09:13:14;9.30;80.50
6738;DHT22;3406;49.902;8.596;2023-02-04T09:15:42;9.30;80.20
6738;DHT22;3406;49.902;8.596;2023-02-04T09:18:09;9.20;79.80
6738;DHT22;3406;49.902;8.596;2023-02-04T09:20:41;9.20;79.80
6738;DHT22;3406;49.902;8.596;2023-02-04T09:23:07;9.20;79.90
6738;DHT22;3406;49.902;8.596;2023-02-04T09:25:36;9.20;79.80
6738;DHT22;3406;49.902;8.596;2023-02-04T09:28:03;9.20;79.50
6738;DHT22;3406;49.902;8.596;2023-02-04T09:30:30;9.20;79.20
6738;DHT22;3406;49.902;8.596;2023-02-04T09:32:58;9.20;78.80
6738;DHT22;3406;49.902;8.596;2023-02-04T09:35:25;9.30;78.70
6738;DHT22;3406;49.902;8.596;2023-02-04T09:37:51;9.30;78.50
6738;DHT22;3406;49.902;8.596;2023-02-04T09:40:19;9.50;78.40
6738;DHT22;3406;49.902;8.596;2023-02-04T09:42:47;9.60;78.30
6738;DHT22;3406;49.902;8.596;2023-02-04T09:45:17;9.70;78.10
6738;DHT22;3406;49.902;8.596;2023-02-04T09:47:44;9.90;77.70
6738;DHT22;3406;49.902;8.596;2023-02-04T09:50:15;10.00;75.90
6738;DHT22;3406;49.902;8.596;2023-02-04T09:52:43;10.00;74.90
6738;DHT22;3406;49.902;8.596;2023-02-04T09:55:12;10.10;74.70
6738;DHT22;3406;49.902;8.596;2023-02-04T09:57:39;10.10;74.30
6738;DHT22;3406;49.902;8.596;2023-02-04T10:00:13;10.00;73.90
6738;DHT22;3406;49.902;8.596;2023-02-04T10:02:40;10.00;73.60
6738;DHT22;3406;49.902;8.596;2023-02-04T10:05:14;10.00;73.50
6738;DHT22;3406;49.902;8.596;2023-02-04T10:07:41;10.00;73.40
6738;DHT22;3406;49.902;8.596;2023-02-04T10:10:14;10.00;73.50
6738;DHT22;3406;49.902;8.596;2023-02-04T10:12:41;10.00;73.40
6738;DHT22;3406;49.902;8.596;2023-02-04T10:15:11;10.00;73.50
6738;DHT22;3406;49.902;8.596;2023-02-04T10:17:39;10.10;73.60
6738;DHT22;3406;49.902;8.596;2023-02-04T10:20:11;10.10;73.40
6738;DHT22;3406;49.902;8.596;2023-02-04T10:22:39;10.20;73.40
6738;DHT22;3406;49.902;8.596;2023-02-04T10:25:11;10.20;73.10
6738;DHT22;3406;49.902;8.596;2023-02-04T10:27:47;10.30;72.80
6738;DHT22;3406;49.902;8.596;2023-02-04T10:30:18;10.20;72.50
6738;DHT22;3406;49.902;8.596;2023-02-04T10:32:46;10.10;71.90
6738;DHT22;3406;49.902;8.596;2023-02-04T10:35:14;10.10;71.60
6738;DHT22;3406;49.902;8.596;2023-02-04T10:37:42;10.00;71.40
6738;DHT22;3406;49.902;8.596;2023-02-04T10:40:25;9.90;72.50
6738;DHT22;3406;49.902;8.596;2023-02-04T10:42:52;9.90;72.50
6738;DHT22;3406;49.902;8.596;2023-02-04T10:45:24;9.90;72.40
6738;DHT22;3406;49.902;8.596;2023-02-04T10:47:52;9.90;72.40
6738;DHT22;3406;49.902;8.596;2023-02-04T10:50:21;9.90;72.30
6738;DHT22;3406;49.902;8.596;2023-02-04T10:52:51;10.00;71.20
6738;DHT22;3406;49.902;8.596;2023-02-04T10:55:22;10.10;71.20
6738;DHT22;3406;49.902;8.596;2023-02-04T10:57:50;10.10;70.70
6738;DHT22;3406;49.902;8.596;2023-02-04T11:00:19;10.20;70.40
6738;DHT22;3406;49.902;8.596;2023-02-04T11:02:51;10.20;70.30
6738;DHT22;3406;49.902;8.596;2023-02-04T11:05:21;10.30;70.30
6738;DHT22;3406;49.902;8.596;2023-02-04T11:07:50;10.30;70.00
6738;DHT22;3406;49.902;8.596;2023-02-04T11:10:19;10.20;69.80
6738;DHT22;3406;49.902;8.596;2023-02-04T11:12:58;10.20;69.70
6738;DHT22;3406;49.902;8.596;2023-02-04T11:15:40;10.30;69.80
6738;DHT22;3406;49.902;8.596;2023-02-04T11:18:10;10.30;69.80
6738;DHT22;3406;49.902;8.596;2023-02-04T11:20:37;10.30;70.40
6738;DHT22;3406;49.902;8.596;2023-02-04T11:23:32;10.40;69.60
6738;DHT22;3406;49.902;8.596;2023-02-04T11:26:08;10.40;69.40
6738;DHT22;3406;49.902;8.596;2023-02-04T11:28:49;10.30;69.20
6738;DHT22;3406;49.902;8.596;2023-02-04T11:31:37;10.30;69.30
6738;DHT22;3406;49.902;8.596;2023-02-04T11:34:11;10.30;69.40
6738;DHT22;3406;49.902;8.596;2023-02-04T11:36:54;10.40;69.20
6738;DHT22;3406;49.902;8.596;2023-02-04T11:39:25;10.30;68.30
6738;DHT22;3406;49.902;8.596;2023-02-04T11:41:53;10.20;68.00
6738;DHT22;3406;49.902;8.596;2023-02-04T11:44:20;10.10;67.90
6738;DHT22;3406;49.902;8.596;2023-02-04T11:46:50;10.10;67.90
6738;DHT22;3406;49.902;8.596;2023-02-04T11:49:20;10.10;68.20
6738;DHT22;3406;49.902;8.596;2023-02-04T11:51:48;10.10;68.30
6738;DHT22;3406;49.902;8.596;2023-02-04T11:54:17;10.20;68.20
6738;DHT22;3406;49.902;8.596;2023-02-04T11:56:45;10.20;68.00
6738;DHT22;3406;49.902;8.596;2023-02-04T11:59:13;10.20;68.10
6738;DHT22;3406;49.902;8.596;2023-02-04T12:01:42;10.20;68.00
6738;DHT22;3406;49.902;8.596;2023-02-04T12:04:21;10.20;67.70
6738;DHT22;3406;49.902;8.596;2023-02-04T12:06:56;10.20;67.80
6738;DHT22;3406;49.902;8.596;2023-02-04T12:09:24;10.20;67.90
6738;DHT22;3406;49.902;8.596;2023-02-04T12:11:54;10.30;67.70
6738;DHT22;3406;49.902;8.596;2023-02-04T12:14:26;10.30;67.50
6738;DHT22;3406;49.902;8.596;2023-02-04T12:16:53;10.20;67.20
6738;DHT22;3406;49.902;8.596;2023-02-04T12:19:21;10.20;67.10
6738;DHT22;3406;49.902;8.596;2023-02-04T12:21:47;10.20;67.10
6738;DHT22;3406;49.902;8.596;2023-02-04T12:24:14;10.20;66.90
6738;DHT22;3406;49.902;8.596;2023-02-04T12:26:41;10.20;66.80
6738;DHT22;3406;49.902;8.596;2023-02-04T12:29:09;10.10;66.60
6738;DHT22;3406;49.902;8.596;2023-02-04T12:31:35;10.10;66.30
6738;DHT22;3406;49.902;8.596;2023-02-04T12:34:02;10.10;66.20
6738;DHT22;3406;49.902;8.596;2023-02-04T12:36:29;10.10;66.10
6738;DHT22;3406;49.902;8.596;2023-02-04T12:38:56;10.10;65.90
6738;DHT22;3406;49.902;8.596;2023-02-04T12:41:23;10.10;66.00
6738;DHT22;3406;49.902;8.596;2023-02-04T12:43:50;10.10;66.10
6738;DHT22;3406;49.902;8.596;2023-02-04T12:46:18;10.20;66.10
6738;DHT22;3406;49.902;8.596;2023-02-04T12:48:44;10.20;66.10
6738;DHT22;3406;49.902;8.596;2023-02-04T12:51:11;10.20;65.90
6738;DHT22;3406;49.902;8.596;2023-02-04T12:53:38;10.10;65.60
6738;DHT22;3406;49.902;8.596;2023-02-04T12:56:05;10.10;65.60
6738;DHT22;3406;49.902;8.596;2023-02-04T12:58:32;10.10;65.60
6738;DHT22;3406;49.902;8.596;2023-02-04T13:00:58;10.30;65.90
6738;DHT22;3406;49.902;8.596;2023-02-04T13:03:26;10.60;65.60
6738;DHT22;3406;49.902;8.596;2023-02-04T13:05:53;10.90;65.10
6738;DHT22;3406;49.902;8.596;2023-02-04T13:08:20;11.00;64.30
6738;DHT22;3406;49.902;8.596;2023-02-04T13:10:47;11.10;64.00
6738;DHT22;3406;49.902;8.596;2023-02-04T13:13:16;11.10;63.70
6738;DHT22;3406;49.902;8.596;2023-02-04T13:15:43;11.10;63.60
6738;DHT22;3406;49.902;8.596;2023-02-04T13:18:10;11.10;63.30
6738;DHT22;3406;49.902;8.596;2023-02-04T13:20:38;11.10;63.00
6738;DHT22;3406;49.902;8.596;2023-02-04T13:23:05;11.00;62.80
6738;DHT22;3406;49.902;8.596;2023-02-04T13:25:32;10.90;62.70
6738;DHT22;3406;49.902;8.596;2023-02-04T13:27:59;11.00;63.00
6738;DHT22;3406;49.902;8.596;2023-02-04T13:30:25;10.90;62.60
6738;DHT22;3406;49.902;8.596;2023-02-04T13:32:52;10.90;62.80
6738;DHT22;3406;49.902;8.596;2023-02-04T13:35:19;10.80;62.70
6738;DHT22;3406;49.902;8.596;2023-02-04T13:37:47;10.80;62.80
6738;DHT22;3406;49.902;8.596;2023-02-04T13:40:13;10.80;62.90
6738;DHT22;3406;49.902;8.596;2023-02-04T13:42:40;10.90;63.00
6738;DHT22;3406;49.902;8.596;2023-02-04T13:45:09;10.80;62.80
6738;DHT22;3406;49.902;8.596;2023-02-04T13:47:36;10.80;62.80
6738;DHT22;3406;49.902;8.596;2023-02-04T13:50:04;10.70;62.50
6738;DHT22;3406;49.902;8.596;2023-02-04T13:52:31;10.70;62.60
6738;DHT22;3406;49.902;8.596;2023-02-04T13:55:00;10.60;62.20
6738;DHT22;3406;49.902;8.596;2023-02-04T13:57:26;10.60;62.10
6738;DHT22;3406;49.902;8.596;2023-02-04T13:59:55;10.60;62.00
6738;DHT22;3406;49.902;8.596;2023-02-04T14:02:21;10.60;61.90
6738;DHT22;3406;49.902;8.596;2023-02-04T14:04:49;10.60;61.40
6738;DHT22;3406;49.902;8.596;2023-02-04T14:07:16;10.50;61.00
6738;DHT22;3406;49.902;8.596;2023-02-04T14:09:43;10.40;61.10
6738;DHT22;3406;49.902;8.596;2023-02-04T14:12:11;10.40;61.30
6738;DHT22;3406;49.902;8.596;2023-02-04T14:14:37;10.40;61.30
6738;DHT22;3406;49.902;8.596;2023-02-04T14:17:04;10.40;61.30
6738;DHT22;3406;49.902;8.596;2023-02-04T14:19:31;10.40;61.10
6738;DHT22;3406;49.902;8.596;2023-02-04T14:21:57;10.50;61.70
6738;DHT22;3406;49.902;8.596;2023-02-04T14:24:24;10.50;60.70
6738;DHT22;3406;49.902;8.596;2023-02-04T14:26:51;10.60;60.50
6738;DHT22;3406;49.902;8.596;2023-02-04T14:29:19;10.70;60.40
6738;DHT22;3406;49.902;8.596;2023-02-04T14:31:45;10.70;60.40
6738;DHT22;3406;49.902;8.596;2023-02-04T14:34:12;10.80;60.30
6738;DHT22;3406;49.902;8.596;2023-02-04T14:36:39;10.80;60.10
6738;DHT22;3406;49.902;8.596;2023-02-04T14:39:05;10.90;60.10
6738;DHT22;3406;49.902;8.596;2023-02-04T14:41:32;10.90;60.10
6738;DHT22;3406;49.902;8.596;2023-02-04T14:43:59;11.00;60.10
6738;DHT22;3406;49.902;8.596;2023-02-04T14:46:27;11.00;60.00
6738;DHT22;3406;49.902;8.596;2023-02-04T14:48:53;11.00;60.00
6738;DHT22;3406;49.902;8.596;2023-02-04T14:51:20;11.10;59.90
6738;DHT22;3406;49.902;8.596;2023-02-04T14:53:47;11.10;59.90
6738;DHT22;3406;49.902;8.596;2023-02-04T14:56:13;11.10;59.70
6738;DHT22;3406;49.902;8.596;2023-02-04T14:58:40;11.20;59.70
6738;DHT22;3406;49.902;8.596;2023-02-04T15:01:07;11.10;59.50
6738;DHT22;3406;49.902;8.596;2023-02-04T15:03:35;11.00;59.50
6738;DHT22;3406;49.902;8.596;2023-02-04T15:06:02;11.00;59.70
6738;DHT22;3406;49.902;8.596;2023-02-04T15:08:28;11.00;59.60
6738;DHT22;3406;49.902;8.596;2023-02-04T15:10:57;10.90;59.40
6738;DHT22;3406;49.902;8.596;2023-02-04T15:13:23;10.90;59.50
6738;DHT22;3406;49.902;8.596;2023-02-04T15:15:50;10.80;59.40
6738;DHT22;3406;49.902;8.596;2023-02-04T15:18:17;10.70;59.30
6738;DHT22;3406;49.902;8.596;2023-02-04T15:20:45;10.70;59.40
6738;DHT22;3406;49.902;8.596;2023-02-04T15:23:11;10.60;59.40
6738;DHT22;3406;49.902;8.596;2023-02-04T15:25:39;10.60;59.40
6738;DHT22;3406;49.902;8.596;2023-02-04T15:28:06;10.50;59.30
6738;DHT22;3406;49.902;8.596;2023-02-04T15:30:33;10.50;59.50
6738;DHT22;3406;49.902;8.596;2023-02-04T15:33:00;10.40;59.50
6738;DHT22;3406;49.902;8.596;2023-02-04T15:35:26;10.30;59.60
6738;DHT22;3406;49.902;8.596;2023-02-04T15:37:54;10.20;59.70
6738;DHT22;3406;49.902;8.596;2023-02-04T15:40:21;10.20;59.80
6738;DHT22;3406;49.902;8.596;2023-02-04T15:42:48;10.10;59.90
6738;DHT22;3406;49.902;8.596;2023-02-04T15:45:15;10.00;60.00
6738;DHT22;3406;49.902;8.596;2023-02-04T15:47:41;10.00;60.10
6738;DHT22;3406;49.902;8.596;2023-02-04T15:50:09;9.90;61.30
6738;DHT22;3406;49.902;8.596;2023-02-04T15:52:37;9.90;61.40
6738;DHT22;3406;49.902;8.596;2023-02-04T15:55:05;9.80;61.40
6738;DHT22;3406;49.902;8.596;2023-02-04T15:57:32;9.70;61.40
6738;DHT22;3406;49.902;8.596;2023-02-04T15:59:59;9.70;61.50
6738;DHT22;3406;49.902;8.596;2023-02-04T16:02:25;9.60;61.50
6738;DHT22;3406;49.902;8.596;2023-02-04T16:04:52;9.50;61.60
6738;DHT22;3406;49.902;8.596;2023-02-04T16:07:19;9.50;61.80
6738;DHT22;3406;49.902;8.596;2023-02-04T16:09:45;9.50;62.00
6738;DHT22;3406;49.902;8.596;2023-02-04T16:12:13;9.40;61.90
6738;DHT22;3406;49.902;8.596;2023-02-04T16:14:40;9.40;62.00